< < Back
Terminal Aerodrome Forecast


Current Version              Previous Versions:   1  2  3  4  5  6  7  8  9  

Terminal Aerodrome Forecast

471
FTUS42 KJAX 261120
TAFJAX
TAF
KJAX 261120Z 2612/2712 33006KT P6SM VCTS SCT025CB BKN050 BKN250
     FM261600 07010KT P6SM VCSH BKN035
     FM262300 06007KT P6SM SCT040 BKN250=

Latest METAR

754
SAUS80 KWBC 261700
MTRJAX
METAR KJAX 261656Z 07009G19KT 10SM SCT026 BKN200 29/22 A3001 RMK AO2
SLP162 T02940222


USA.gov is the U.S. government's official web portal to all federal, state and local government web resources and services.